Time;durP1;ratioP1;P1;durP2;ratioP2;P2;SDS_P1;SDS_P2;PMS_P1;PMS_P2;Temp;Humidity;BMP_temperature;BMP_pressure;BME280_temperature;BME280_humidity;BME280_pressure;Samples;Min_cycle;Max_cycle;Signal;HPM_P1;HPM_P2
2023/07/08 00:02:12;;;;;;;6.78;3.15;;;;;;;-145.41;100.00;58600.66;5043970;28;20045;-73
2023/07/08 00:04:39;;;;;;;5.93;2.90;;;;;;;-145.41;100.00;58600.66;5045963;28;20098;-73
2023/07/08 00:07:05;;;;;;;3.85;2.63;;;;;;;-145.41;100.00;58600.66;5040170;28;20052;-72
2023/07/08 00:09:30;;;;;;;5.00;2.53;;;;;;;-145.41;100.00;58600.66;5040463;28;20049;-73
2023/07/08 00:11:57;;;;;;;4.68;2.83;;;;;;;-145.41;100.00;58600.66;5045708;28;20031;-73
2023/07/08 00:14:23;;;;;;;6.30;2.80;;;;;;;-145.41;100.00;58600.66;5039853;28;20033;-72
2023/07/08 00:16:49;;;;;;;4.28;2.67;;;;;;;-145.41;100.00;58600.66;5042890;28;20037;-72
2023/07/08 00:19:18;;;;;;;5.68;3.25;;;;;;;-145.41;100.00;58600.66;5045602;28;20048;-72
2023/07/08 00:21:44;;;;;;;5.85;2.83;;;;;;;-145.41;100.00;58600.66;5041196;28;20056;-72
2023/07/08 00:24:10;;;;;;;3.70;2.28;;;;;;;-145.41;100.00;58600.66;5050102;28;20491;-72
2023/07/08 00:26:35;;;;;;;6.15;3.08;;;;;;;-145.41;100.00;58600.66;5040338;28;20641;-73
2023/07/08 00:29:00;;;;;;;4.82;2.50;;;;;;;-145.41;100.00;58600.66;5041622;28;20039;-72
2023/07/08 00:31:26;;;;;;;5.43;2.70;;;;;;;-145.41;100.00;58600.66;5050592;28;20040;-72
2023/07/08 00:33:55;;;;;;;4.25;2.63;;;;;;;-145.41;100.00;58600.66;5020114;28;20559;-73
2023/07/08 00:36:21;;;;;;;6.45;2.90;;;;;;;-145.41;100.00;58600.66;5043187;28;20036;-71
2023/07/08 00:38:46;;;;;;;4.22;2.72;;;;;;;-145.41;100.00;58600.66;5036555;28;20041;-72
2023/07/08 00:41:36;;;;;;;5.82;2.75;;;;;;;-145.41;100.00;58600.66;5040583;28;20495;-73
2023/07/08 00:44:02;;;;;;;4.88;2.90;;;;;;;-145.41;100.00;58600.66;5055097;28;20036;-73
2023/07/08 00:46:29;;;;;;;4.65;2.92;;;;;;;-145.41;100.00;58600.66;5044798;28;20036;-73
2023/07/08 00:49:09;;;;;;;6.80;3.17;;;;;;;-145.41;100.00;58600.66;5042332;28;20045;-73
2023/07/08 00:51:40;;;;;;;4.40;2.92;;;;;;;-145.41;100.00;58600.66;5042904;28;20033;-72
2023/07/08 00:54:13;;;;;;;5.93;3.28;;;;;;;-145.41;100.00;58600.66;5038589;28;20063;-72
2023/07/08 00:56:50;;;;;;;4.80;3.10;;;;;;;-145.41;100.00;58600.66;5042460;28;20403;-73
2023/07/08 00:59:26;;;;;;;4.03;2.63;;;;;;;-145.41;100.00;58600.66;5043051;28;20028;-72
2023/07/08 01:01:55;;;;;;;5.22;3.13;;;;;;;-145.41;100.00;58600.66;5042687;28;20037;-73
2023/07/08 01:04:50;;;;;;;5.30;3.20;;;;;;;-145.41;100.00;58600.66;5041491;28;20044;-73
2023/07/08 01:07:21;;;;;;;7.38;3.28;;;;;;;-145.41;100.00;58600.66;5037402;28;20037;-73
2023/07/08 01:09:49;;;;;;;5.03;3.08;;;;;;;-145.41;100.00;58600.66;5045237;28;20033;-72
2023/07/08 01:12:20;;;;;;;4.65;2.92;;;;;;;-145.41;100.00;58600.66;5040214;28;20026;-72
2023/07/08 01:14:47;;;;;;;4.60;2.97;;;;;;;-145.41;100.00;58600.66;5041365;28;20116;-72
2023/07/08 01:17:13;;;;;;;4.05;2.53;;;;;;;-145.41;100.00;58600.66;5042805;28;20392;-72
2023/07/08 01:19:41;;;;;;;4.15;2.53;;;;;;;-145.41;100.00;58600.66;5041750;28;20468;-73
2023/07/08 01:22:07;;;;;;;5.03;3.35;;;;;;;-145.41;100.00;58600.66;5032092;28;20423;-73
2023/07/08 01:24:36;;;;;;;5.40;3.10;;;;;;;-145.41;100.00;58600.66;5042689;28;20029;-73
2023/07/08 01:27:06;;;;;;;7.47;3.42;;;;;;;-145.41;100.00;58600.66;5044055;28;20033;-73
2023/07/08 01:29:32;;;;;;;7.40;3.42;;;;;;;-145.41;100.00;58600.66;5040443;28;20389;-73
2023/07/08 01:32:02;;;;;;;5.30;3.22;;;;;;;-145.41;100.00;58600.66;5044132;28;20112;-73
2023/07/08 01:34:36;;;;;;;6.75;3.20;;;;;;;-145.41;100.00;58600.66;5041527;28;20031;-73
2023/07/08 01:37:04;;;;;;;4.53;2.92;;;;;;;-145.41;100.00;58600.66;5035749;28;20021;-72
2023/07/08 01:39:31;;;;;;;4.78;3.05;;;;;;;-145.41;100.00;58600.66;5038567;28;20095;-73
2023/07/08 01:41:57;;;;;;;8.45;3.60;;;;;;;-145.41;100.00;58600.66;5043627;28;20446;-72
2023/07/08 01:44:36;;;;;;;5.93;3.42;;;;;;;-145.41;100.00;58600.66;5044754;28;20076;-72
2023/07/08 01:47:10;;;;;;;5.18;3.10;;;;;;;-145.41;100.00;58600.66;5042415;28;20033;-72
2023/07/08 01:49:39;;;;;;;5.32;2.90;;;;;;;-145.41;100.00;58600.66;5030837;28;20039;-72
2023/07/08 01:52:05;;;;;;;6.15;2.90;;;;;;;-145.41;100.00;58600.66;5036037;28;20602;-74
2023/07/08 01:54:30;;;;;;;5.40;3.45;;;;;;;-145.41;100.00;58600.66;5044630;28;20040;-73
2023/07/08 01:56:58;;;;;;;6.40;3.10;;;;;;;-145.41;100.00;58600.66;5044166;28;20020;-73
2023/07/08 01:59:23;;;;;;;5.88;3.45;;;;;;;-145.41;100.00;58600.66;5039927;28;20307;-73
2023/07/08 02:01:54;;;;;;;5.30;3.63;;;;;;;-145.41;100.00;58600.66;5046593;28;20083;-73
2023/07/08 02:04:20;;;;;;;4.97;3.00;;;;;;;-145.41;100.00;58600.66;5040461;28;20029;-74
2023/07/08 02:06:54;;;;;;;7.93;3.63;;;;;;;-145.41;100.00;58600.66;5038240;28;20029;-74
2023/07/08 02:09:19;;;;;;;6.38;3.28;;;;;;;-145.41;100.00;58600.66;5039467;28;20033;-74
2023/07/08 02:11:45;;;;;;;7.15;3.58;;;;;;;-145.41;100.00;58600.66;5048317;28;20123;-74
2023/07/08 02:14:10;;;;;;;5.43;3.22;;;;;;;-145.41;100.00;58600.66;5036307;28;20029;-73
2023/07/08 02:16:35;;;;;;;5.45;3.53;;;;;;;-145.41;100.00;58600.66;5039941;28;20047;-73
2023/07/08 02:19:01;;;;;;;6.03;3.38;;;;;;;-145.41;100.00;58600.66;5047856;28;20025;-73
2023/07/08 02:21:30;;;;;;;8.95;4.25;;;;;;;-145.41;100.00;58600.66;5040248;28;20033;-74
2023/07/08 02:23:57;;;;;;;7.20;4.05;;;;;;;-145.41;100.00;58600.66;5039441;28;20057;-73
2023/07/08 02:26:22;;;;;;;6.70;3.53;;;;;;;-145.41;100.00;58600.66;5044496;28;20036;-74
2023/07/08 02:28:48;;;;;;;5.57;3.25;;;;;;;-145.41;100.00;58600.66;5039198;28;20022;-73
2023/07/08 02:31:13;;;;;;;5.60;3.58;;;;;;;-145.41;100.00;58600.66;5038331;28;20492;-74
2023/07/08 02:33:38;;;;;;;5.90;3.13;;;;;;;-145.41;100.00;58600.66;5039980;28;20090;-74
2023/07/08 02:36:04;;;;;;;5.28;3.38;;;;;;;-145.41;100.00;58600.66;5042149;28;20029;-74
2023/07/08 02:38:29;;;;;;;4.88;3.33;;;;;;;-145.41;100.00;58600.66;5044175;28;20068;-74
2023/07/08 02:40:55;;;;;;;9.82;3.65;;;;;;;-145.41;100.00;58600.66;5036979;28;20033;-74
2023/07/08 02:43:20;;;;;;;4.72;3.50;;;;;;;-145.41;100.00;58600.66;5035376;28;20042;-74
2023/07/08 02:45:49;;;;;;;7.50;3.83;;;;;;;-145.41;100.00;58600.66;5039648;28;20033;-74
2023/07/08 02:48:14;;;;;;;5.45;4.07;;;;;;;-145.41;100.00;58600.66;5040964;28;20518;-73
2023/07/08 02:50:40;;;;;;;9.13;4.10;;;;;;;-145.41;100.00;58600.66;5041156;28;20033;-73
2023/07/08 02:53:05;;;;;;;5.50;3.67;;;;;;;-145.41;100.00;58600.66;5045144;28;20029;-72
2023/07/08 02:55:31;;;;;;;6.20;3.50;;;;;;;-145.41;100.00;58600.66;5033993;28;20045;-73
2023/07/08 02:57:56;;;;;;;6.03;4.22;;;;;;;-145.41;100.00;58600.66;5033867;28;20040;-73
2023/07/08 03:00:21;;;;;;;6.13;4.07;;;;;;;-145.41;100.00;58600.66;5039770;28;20040;-73
2023/07/08 03:02:47;;;;;;;7.75;3.58;;;;;;;-145.41;100.00;58600.66;5035611;28;20033;-72
2023/07/08 03:05:13;;;;;;;6.47;4.10;;;;;;;-145.41;100.00;58600.66;5042503;28;20033;-73
2023/07/08 03:07:38;;;;;;;5.18;3.40;;;;;;;-145.41;100.00;58600.66;5037128;28;20044;-73
2023/07/08 03:10:03;;;;;;;8.55;4.55;;;;;;;-145.41;100.00;58600.66;5034412;28;20042;-72
2023/07/08 03:12:29;;;;;;;4.97;3.40;;;;;;;-145.41;100.00;58600.66;5040686;28;20097;-72
2023/07/08 03:14:54;;;;;;;5.28;3.55;;;;;;;-145.41;100.00;58600.66;5034799;28;20052;-73
2023/07/08 03:17:20;;;;;;;7.32;4.03;;;;;;;-145.41;100.00;58600.66;5035257;28;20466;-73
2023/07/08 03:19:45;;;;;;;6.32;3.58;;;;;;;-145.41;100.00;58600.66;5042733;28;20033;-73
2023/07/08 03:22:10;;;;;;;8.10;4.30;;;;;;;-145.41;100.00;58600.66;5044967;28;20041;-73
2023/07/08 03:24:36;;;;;;;4.72;3.70;;;;;;;-145.41;100.00;58600.66;5036846;28;20040;-73
2023/07/08 03:27:05;;;;;;;5.70;3.33;;;;;;;-145.41;100.00;58600.66;5040757;28;20033;-73
2023/07/08 03:29:32;;;;;;;6.50;3.35;;;;;;;-145.41;100.00;58600.66;5040957;28;20519;-73
2023/07/08 03:31:59;;;;;;;5.53;3.42;;;;;;;-145.41;100.00;58600.66;5036398;28;20029;-73
2023/07/08 03:34:24;;;;;;;4.93;3.47;;;;;;;-145.41;100.00;58600.66;5036721;28;20026;-73
2023/07/08 03:36:51;;;;;;;5.32;3.78;;;;;;;-145.41;100.00;58600.66;5042002;28;20040;-73
2023/07/08 03:39:20;;;;;;;6.68;4.35;;;;;;;-145.41;100.00;58600.66;5035910;28;20048;-73
2023/07/08 03:41:45;;;;;;;5.40;3.38;;;;;;;-145.41;100.00;58600.66;5044001;28;20511;-73
2023/07/08 03:44:12;;;;;;;6.35;3.70;;;;;;;-145.41;100.00;58600.66;5037678;28;20037;-73
2023/07/08 03:46:38;;;;;;;4.82;3.78;;;;;;;-145.41;100.00;58600.66;5037802;28;20029;-73
2023/07/08 03:49:04;;;;;;;5.50;4.20;;;;;;;-145.41;100.00;58600.66;5043626;28;20040;-73
2023/07/08 03:51:33;;;;;;;5.45;3.42;;;;;;;-145.41;100.00;58600.66;5037600;28;20025;-73
2023/07/08 03:53:58;;;;;;;4.28;3.10;;;;;;;-145.41;100.00;58600.66;5040152;28;20033;-72
2023/07/08 03:56:24;;;;;;;6.38;3.55;;;;;;;-145.41;100.00;58600.66;5040172;28;20029;-73
2023/07/08 03:58:50;;;;;;;6.57;3.88;;;;;;;-145.41;100.00;58600.66;5042686;28;20062;-73
2023/07/08 04:01:18;;;;;;;8.18;3.58;;;;;;;-145.41;100.00;58600.66;5039263;28;20111;-72
2023/07/08 04:03:44;;;;;;;5.07;3.20;;;;;;;-145.41;100.00;58600.66;5037590;28;20509;-74
2023/07/08 04:06:11;;;;;;;6.45;3.80;;;;;;;-145.41;100.00;58600.66;5037071;28;20108;-74
2023/07/08 04:08:36;;;;;;;9.40;4.25;;;;;;;-145.41;100.00;58600.66;5030400;28;20128;-72
2023/07/08 04:11:02;;;;;;;7.18;3.90;;;;;;;-145.41;100.00;58600.66;5034137;28;20036;-72
2023/07/08 04:13:27;;;;;;;5.93;3.80;;;;;;;-145.41;100.00;58600.66;5041860;28;20044;-73
2023/07/08 04:16:04;;;;;;;6.25;3.90;;;;;;;-145.41;100.00;58600.66;5041198;28;20037;-73
2023/07/08 04:18:30;;;;;;;7.45;3.83;;;;;;;-145.41;100.00;58600.66;5035936;28;20037;-73
2023/07/08 04:20:55;;;;;;;5.35;3.88;;;;;;;-145.41;100.00;58600.66;5044253;28;20040;-73
2023/07/08 04:23:22;;;;;;;6.43;3.65;;;;;;;-145.41;100.00;58600.66;5038540;28;20053;-73
2023/07/08 04:25:49;;;;;;;5.30;4.00;;;;;;;-145.41;100.00;58600.66;5030323;28;20106;-73
2023/07/08 04:28:15;;;;;;;4.88;3.58;;;;;;;-145.41;100.00;58600.66;5037946;28;20025;-72
2023/07/08 04:30:42;;;;;;;7.35;3.78;;;;;;;-145.41;100.00;58600.66;5031642;28;20034;-73
2023/07/08 04:33:08;;;;;;;5.75;4.03;;;;;;;-145.41;100.00;58600.66;5035076;28;20033;-74
2023/07/08 04:35:35;;;;;;;6.85;3.72;;;;;;;-145.41;100.00;58600.66;5034547;28;20708;-73
2023/07/08 04:38:01;;;;;;;6.45;3.63;;;;;;;-145.41;100.00;58600.66;5031891;28;20136;-73
2023/07/08 04:40:26;;;;;;;5.47;4.03;;;;;;;-145.41;100.00;58600.66;5030727;28;20152;-73
2023/07/08 04:42:53;;;;;;;7.32;3.88;;;;;;;-145.41;100.00;58600.66;5041576;28;20041;-74
2023/07/08 04:45:19;;;;;;;6.75;4.40;;;;;;;-145.41;100.00;58600.66;5030215;28;20507;-74
2023/07/08 04:47:51;;;;;;;6.63;4.30;;;;;;;-145.41;100.00;58600.66;5041392;28;20383;-74
2023/07/08 04:50:17;;;;;;;7.43;4.03;;;;;;;-145.41;100.00;58600.66;5042780;28;20026;-73
2023/07/08 04:52:43;;;;;;;14.88;4.53;;;;;;;-145.41;100.00;58600.66;5039768;28;20377;-72
2023/07/08 04:55:09;;;;;;;6.68;3.85;;;;;;;-145.41;100.00;58600.66;5047183;28;20508;-73
2023/07/08 04:57:35;;;;;;;5.28;3.85;;;;;;;-145.41;100.00;58600.66;5041810;28;20037;-73
2023/07/08 05:00:00;;;;;;;6.72;3.30;;;;;;;-145.41;100.00;58600.66;5041208;28;20034;-73
2023/07/08 05:02:25;;;;;;;4.78;3.55;;;;;;;-145.41;100.00;58600.66;5048532;28;20076;-73
2023/07/08 05:04:51;;;;;;;5.68;3.53;;;;;;;-145.41;100.00;58600.66;5042029;28;20065;-74
2023/07/08 05:07:16;;;;;;;7.15;4.18;;;;;;;-145.41;100.00;58600.66;5039859;28;20057;-73
2023/07/08 05:09:41;;;;;;;4.85;3.45;;;;;;;-145.41;100.00;58600.66;5048231;28;20052;-73
2023/07/08 05:12:07;;;;;;;5.28;3.90;;;;;;;-145.41;100.00;58600.66;5042975;28;20033;-73
2023/07/08 05:14:32;;;;;;;6.90;3.90;;;;;;;-145.41;100.00;58600.66;5046802;28;20033;-73
2023/07/08 05:16:57;;;;;;;5.00;3.30;;;;;;;-145.41;100.00;58600.66;5039903;28;20025;-74
2023/07/08 05:19:24;;;;;;;5.20;3.35;;;;;;;-145.41;100.00;58600.66;5043147;28;20159;-74
2023/07/08 05:21:49;;;;;;;5.20;3.38;;;;;;;-145.41;100.00;58600.66;5046234;28;20038;-74
2023/07/08 05:24:14;;;;;;;6.30;3.83;;;;;;;-145.41;100.00;58600.66;5040664;28;20032;-74
2023/07/08 05:26:40;;;;;;;4.75;3.55;;;;;;;-145.41;100.00;58600.66;5041825;28;20108;-74
2023/07/08 05:29:05;;;;;;;4.47;3.20;;;;;;;-145.41;100.00;58600.66;5047712;28;20037;-74
2023/07/08 05:31:30;;;;;;;5.88;3.17;;;;;;;-145.41;100.00;58600.66;5038171;28;20040;-74
2023/07/08 05:33:56;;;;;;;5.32;3.35;;;;;;;-145.41;100.00;58600.66;5042359;28;20061;-74
2023/07/08 05:36:21;;;;;;;5.85;3.17;;;;;;;-145.41;100.00;58600.66;5041301;28;20125;-74
2023/07/08 05:38:48;;;;;;;5.63;3.40;;;;;;;-145.41;100.00;58600.66;5033268;28;20209;-74
2023/07/08 05:41:13;;;;;;;4.32;2.92;;;;;;;-145.41;100.00;58600.66;5042236;28;20039;-74
2023/07/08 05:43:38;;;;;;;6.88;3.90;;;;;;;-145.41;100.00;58600.66;5049573;28;20033;-74
2023/07/08 05:46:04;;;;;;;5.15;3.80;;;;;;;-145.41;100.00;58600.66;5037185;28;20114;-74
2023/07/08 05:48:29;;;;;;;5.53;3.30;;;;;;;-145.41;100.00;58600.66;5043387;28;20067;-74
2023/07/08 05:50:55;;;;;;;5.00;2.90;;;;;;;-145.41;100.00;58600.66;5039957;28;20029;-74
2023/07/08 05:53:21;;;;;;;4.82;3.08;;;;;;;-145.41;100.00;58600.66;5035910;28;20087;-74
2023/07/08 05:55:48;;;;;;;5.30;3.65;;;;;;;-145.41;100.00;58600.66;5041044;28;20435;-74
2023/07/08 05:58:15;;;;;;;6.60;4.07;;;;;;;-145.41;100.00;58600.66;5045278;28;20029;-75
2023/07/08 06:00:42;;;;;;;7.43;3.97;;;;;;;-145.41;100.00;58600.66;5034830;28;20044;-74
2023/07/08 06:03:07;;;;;;;7.90;3.42;;;;;;;-145.41;100.00;58600.66;5045254;28;20120;-74
2023/07/08 06:05:33;;;;;;;6.78;3.90;;;;;;;-145.41;100.00;58600.66;5046902;28;20150;-74
2023/07/08 06:07:58;;;;;;;9.95;4.05;;;;;;;-145.41;100.00;58600.66;5040707;28;20115;-75
2023/07/08 06:10:24;;;;;;;5.65;3.65;;;;;;;-145.41;100.00;58600.66;5047798;28;20040;-76
2023/07/08 06:12:50;;;;;;;5.50;3.15;;;;;;;-145.41;100.00;58600.66;5048146;28;20064;-75
2023/07/08 06:15:15;;;;;;;5.20;3.38;;;;;;;-145.41;100.00;58600.66;5040386;28;20057;-74
2023/07/08 06:17:40;;;;;;;4.57;2.58;;;;;;;-145.41;100.00;58600.66;5043658;28;20440;-75
2023/07/08 06:20:07;;;;;;;4.88;3.00;;;;;;;-145.41;100.00;58600.66;5045062;28;20029;-75
2023/07/08 06:22:32;;;;;;;5.15;2.72;;;;;;;-145.41;100.00;58600.66;5032314;28;20045;-75
2023/07/08 06:24:57;;;;;;;5.10;3.47;;;;;;;-145.41;100.00;58600.66;5038499;28;20034;-74
2023/07/08 06:27:23;;;;;;;5.60;3.20;;;;;;;-145.41;100.00;58600.66;5041588;28;20034;-74
2023/07/08 06:29:48;;;;;;;5.70;3.20;;;;;;;-145.41;100.00;58600.66;5030649;28;20041;-74
2023/07/08 06:32:14;;;;;;;8.85;4.90;;;;;;;-145.41;100.00;58600.66;5037285;28;20040;-75
2023/07/08 06:34:39;;;;;;;4.20;2.92;;;;;;;-145.41;100.00;58600.66;5038210;28;20034;-75
2023/07/08 06:37:05;;;;;;;3.97;2.58;;;;;;;-145.41;100.00;58600.66;5035240;28;20124;-75
2023/07/08 06:39:30;;;;;;;3.67;2.70;;;;;;;-145.41;100.00;58600.66;5047452;28;20064;-75
2023/07/08 06:41:55;;;;;;;6.93;2.97;;;;;;;-145.41;100.00;58600.66;5041611;28;20037;-75
2023/07/08 06:44:26;;;;;;;5.85;3.10;;;;;;;-145.41;100.00;58600.66;5041704;28;20037;-75
2023/07/08 06:46:52;;;;;;;4.95;3.00;;;;;;;-145.41;100.00;58600.66;5044971;28;20092;-75
2023/07/08 06:49:17;;;;;;;4.85;2.58;;;;;;;-145.41;100.00;58600.66;5032280;28;20045;-74
2023/07/08 06:51:44;;;;;;;6.80;3.17;;;;;;;-145.41;100.00;58600.66;5035466;28;20037;-74
2023/07/08 06:54:11;;;;;;;5.47;2.90;;;;;;;-145.41;100.00;58600.66;5044784;28;20032;-75
2023/07/08 06:56:38;;;;;;;5.03;2.78;;;;;;;-145.41;100.00;58600.66;5035755;28;20112;-75
2023/07/08 06:59:04;;;;;;;4.00;2.30;;;;;;;-145.41;100.00;58600.66;5042932;28;20033;-75
2023/07/08 07:01:29;;;;;;;4.13;2.40;;;;;;;-145.41;100.00;58600.66;5038973;28;20037;-74
2023/07/08 07:03:54;;;;;;;5.45;2.88;;;;;;;-145.41;100.00;58600.66;5036553;28;20083;-75
2023/07/08 07:06:20;;;;;;;4.53;3.13;;;;;;;-145.41;100.00;58600.66;5043884;28;20052;-75
2023/07/08 07:08:45;;;;;;;5.50;2.97;;;;;;;-145.41;100.00;58600.66;5039016;28;20045;-75
2023/07/08 07:11:10;;;;;;;4.22;2.67;;;;;;;-145.41;100.00;58600.66;5036698;28;20025;-77
2023/07/08 07:13:35;;;;;;;6.25;2.88;;;;;;;-145.41;100.00;58600.66;5044638;28;20044;-75
2023/07/08 07:16:01;;;;;;;4.13;2.72;;;;;;;-145.41;100.00;58600.66;5047569;28;20037;-75
2023/07/08 07:18:26;;;;;;;5.55;2.70;;;;;;;-145.41;100.00;58600.66;5034659;28;20033;-75
2023/07/08 07:20:54;;;;;;;4.10;2.20;;;;;;;-145.41;100.00;58600.66;5042123;28;20032;-75
2023/07/08 07:23:20;;;;;;;3.67;2.10;;;;;;;-145.41;100.00;58600.66;5047245;28;20328;-74
2023/07/08 07:25:47;;;;;;;4.05;2.70;;;;;;;-145.41;100.00;58600.66;5039478;28;20108;-76
2023/07/08 07:28:13;;;;;;;3.25;2.25;;;;;;;-145.41;100.00;58600.66;5044910;28;20055;-76
2023/07/08 07:30:39;;;;;;;4.05;2.45;;;;;;;-145.41;100.00;58600.66;5042873;28;20033;-75
2023/07/08 07:33:04;;;;;;;4.22;2.22;;;;;;;-145.41;100.00;58600.66;5040108;28;20099;-77
2023/07/08 07:35:29;;;;;;;4.68;2.30;;;;;;;-145.41;100.00;58600.66;5032495;28;20108;-77
2023/07/08 07:37:55;;;;;;;4.60;2.35;;;;;;;-145.41;100.00;58600.66;5035303;28;20037;-77
2023/07/08 07:40:20;;;;;;;5.60;2.63;;;;;;;-145.41;100.00;58600.66;5039936;28;20071;-75
2023/07/08 07:42:46;;;;;;;4.00;2.40;;;;;;;-145.41;100.00;58600.66;5046228;28;20032;-75
2023/07/08 07:45:13;;;;;;;5.65;2.28;;;;;;;-145.41;100.00;58600.66;5042291;28;20037;-75
2023/07/08 07:47:39;;;;;;;3.88;2.28;;;;;;;-145.41;100.00;58600.66;5035152;28;20037;-75
2023/07/08 07:50:06;;;;;;;5.75;2.53;;;;;;;-145.41;100.00;58600.66;5039792;28;20095;-75
2023/07/08 07:52:31;;;;;;;5.15;2.53;;;;;;;-145.41;100.00;58600.66;5038983;28;20029;-75
2023/07/08 07:54:57;;;;;;;4.28;2.45;;;;;;;-145.41;100.00;58600.66;5041730;28;20029;-76
2023/07/08 07:57:22;;;;;;;6.15;2.80;;;;;;;-145.41;100.00;58600.66;5047011;28;20047;-76
2023/07/08 07:59:48;;;;;;;4.55;2.80;;;;;;;-145.41;100.00;58600.66;5033799;28;20037;-75
2023/07/08 08:02:17;;;;;;;3.92;2.50;;;;;;;-145.41;100.00;58600.66;5027608;28;20064;-75
2023/07/08 08:04:43;;;;;;;5.38;2.83;;;;;;;-145.41;100.00;58600.66;5032507;28;20041;-75
2023/07/08 08:07:09;;;;;;;4.53;2.45;;;;;;;-145.41;100.00;58600.66;5031096;28;20047;-76
2023/07/08 08:09:35;;;;;;;4.68;2.33;;;;;;;-145.41;100.00;58600.66;5028223;28;20428;-75
2023/07/08 08:12:02;;;;;;;4.13;2.47;;;;;;;-145.41;100.00;58600.66;5037479;28;20103;-75
2023/07/08 08:14:27;;;;;;;4.63;2.50;;;;;;;-145.41;100.00;58600.66;5025021;28;20037;-76
2023/07/08 08:16:53;;;;;;;3.70;2.10;;;;;;;-145.41;100.00;58600.66;5031165;28;20030;-75
2023/07/08 08:19:18;;;;;;;3.67;2.38;;;;;;;-145.41;100.00;58600.66;5038887;28;20037;-75
2023/07/08 08:21:44;;;;;;;3.90;2.70;;;;;;;-145.41;100.00;58600.66;5034922;28;20037;-75
2023/07/08 08:24:10;;;;;;;3.78;2.17;;;;;;;-145.41;100.00;58600.66;5047424;28;20063;-75
2023/07/08 08:26:35;;;;;;;4.80;2.60;;;;;;;-145.41;100.00;58600.66;5051930;28;20116;-75
2023/07/08 08:29:00;;;;;;;4.47;2.60;;;;;;;-145.41;100.00;58600.66;5039969;28;20037;-75
2023/07/08 08:31:26;;;;;;;4.57;2.40;;;;;;;-145.41;100.00;58600.66;5048712;28;20117;-75
2023/07/08 08:33:52;;;;;;;5.35;2.53;;;;;;;-145.41;100.00;58600.66;5047454;28;20046;-74
2023/07/08 08:36:17;;;;;;;3.83;2.35;;;;;;;-145.41;100.00;58600.66;5035199;28;20051;-74
2023/07/08 08:38:43;;;;;;;4.10;2.40;;;;;;;-145.41;100.00;58600.66;5037725;28;20451;-74
2023/07/08 08:41:13;;;;;;;4.72;2.53;;;;;;;-145.41;100.00;58600.66;5037262;28;20650;-74
2023/07/08 08:43:41;;;;;;;5.75;2.50;;;;;;;-145.41;100.00;58600.66;5038135;28;20403;-74
2023/07/08 08:46:23;;;;;;;7.47;2.60;;;;;;;-145.41;100.00;58600.66;5038762;28;20037;-75
2023/07/08 08:49:02;;;;;;;4.93;2.63;;;;;;;-145.41;100.00;58600.66;5034035;28;20042;-75
2023/07/08 08:51:31;;;;;;;3.65;2.40;;;;;;;-145.41;100.00;58600.66;5036497;28;20029;-76
2023/07/08 08:53:57;;;;;;;4.45;2.42;;;;;;;-145.41;100.00;58600.66;5044897;28;20036;-75
2023/07/08 08:56:28;;;;;;;6.82;2.75;;;;;;;-145.41;100.00;58600.66;5038181;28;20506;-74
2023/07/08 08:59:12;;;;;;;4.18;2.47;;;;;;;-145.41;100.00;58600.66;5036490;28;20034;-76
2023/07/08 09:01:37;;;;;;;4.78;2.45;;;;;;;-145.41;100.00;58600.66;5032277;28;20034;-75
2023/07/08 09:04:12;;;;;;;4.45;2.83;;;;;;;-145.41;100.00;58600.66;5038120;28;20484;-75
2023/07/08 09:06:39;;;;;;;4.10;2.40;;;;;;;-145.41;100.00;58600.66;5044504;28;20411;-75
2023/07/08 09:09:30;;;;;;;4.47;2.67;;;;;;;-145.41;100.00;58600.66;5042845;28;20033;-75
2023/07/08 09:12:09;;;;;;;4.25;2.60;;;;;;;-145.41;100.00;58600.66;5039276;28;20069;-75
2023/07/08 09:14:36;;;;;;;4.15;2.67;;;;;;;-145.41;100.00;58600.66;5048301;28;20407;-75
2023/07/08 09:17:22;;;;;;;6.00;2.33;;;;;;;-145.41;100.00;58600.66;5044874;28;20125;-75
2023/07/08 09:19:52;;;;;;;4.38;2.75;;;;;;;-145.41;100.00;58600.66;5036951;28;20040;-75
2023/07/08 09:22:37;;;;;;;4.03;2.38;;;;;;;-145.41;100.00;58600.66;5045996;28;20037;-75
2023/07/08 09:25:15;;;;;;;3.75;2.22;;;;;;;-145.41;100.00;58600.66;5037046;28;20037;-75
2023/07/08 09:27:41;;;;;;;4.03;2.33;;;;;;;-145.41;100.00;58600.66;5040360;28;20040;-74
2023/07/08 09:30:20;;;;;;;3.83;2.60;;;;;;;-145.41;100.00;58600.66;5050347;28;20037;-76
2023/07/08 09:32:47;;;;;;;3.83;2.20;;;;;;;-145.41;100.00;58600.66;5040189;28;20496;-76
2023/07/08 09:35:27;;;;;;;4.68;2.33;;;;;;;-145.41;100.00;58600.66;5047047;28;20024;-74
2023/07/08 09:37:54;;;;;;;4.30;2.70;;;;;;;-145.41;100.00;58600.66;5037519;28;20392;-76
2023/07/08 09:40:23;;;;;;;3.72;2.10;;;;;;;-145.41;100.00;58600.66;5038020;28;20673;-75
2023/07/08 09:42:54;;;;;;;5.55;2.30;;;;;;;-145.41;100.00;58600.66;5044242;28;20112;-76
2023/07/08 09:45:23;;;;;;;3.97;2.47;;;;;;;-145.41;100.00;58600.66;5042227;28;20546;-77
2023/07/08 09:47:55;;;;;;;3.80;2.38;;;;;;;-145.41;100.00;58600.66;5041641;28;20104;-75
2023/07/08 09:50:27;;;;;;;5.90;2.67;;;;;;;-145.41;100.00;58600.66;5047251;28;20025;-76
2023/07/08 09:52:56;;;;;;;4.40;2.58;;;;;;;-145.41;100.00;58600.66;5034539;28;20048;-75
2023/07/08 09:55:22;;;;;;;3.80;2.33;;;;;;;-145.41;100.00;58600.66;5037794;28;20029;-76
2023/07/08 09:57:50;;;;;;;6.22;3.10;;;;;;;-145.41;100.00;58600.66;5032956;28;20025;-76
2023/07/08 10:00:19;;;;;;;4.22;2.40;;;;;;;-145.41;100.00;58600.66;5037253;28;20132;-76
2023/07/08 10:02:55;;;;;;;5.40;2.80;;;;;;;-145.41;100.00;58600.66;5041775;28;20045;-76
2023/07/08 10:05:41;;;;;;;4.38;2.42;;;;;;;-145.41;100.00;58600.66;5048046;28;20030;-75
2023/07/08 10:08:19;;;;;;;3.92;2.50;;;;;;;-145.41;100.00;58600.66;5036676;28;20021;-76
2023/07/08 10:10:47;;;;;;;4.43;2.65;;;;;;;-145.41;100.00;58600.66;5036266;28;20067;-76
2023/07/08 10:13:40;;;;;;;6.68;3.10;;;;;;;-145.41;100.00;58600.66;5039487;28;20061;-75
2023/07/08 10:16:16;;;;;;;4.35;2.90;;;;;;;-145.41;100.00;58600.66;5035810;28;20037;-75
2023/07/08 10:18:42;;;;;;;4.72;2.60;;;;;;;-145.41;100.00;58600.66;5039599;28;20768;-76
2023/07/08 10:21:40;;;;;;;3.80;2.40;;;;;;;-145.41;100.00;58600.66;5033901;28;20083;-76
2023/07/08 10:24:30;;;;;;;4.82;2.58;;;;;;;-145.41;100.00;58600.66;5040734;28;20065;-76
2023/07/08 10:27:14;;;;;;;3.83;2.40;;;;;;;-145.41;100.00;58600.66;5044031;28;20032;-75
2023/07/08 10:29:43;;;;;;;3.88;2.15;;;;;;;-145.41;100.00;58600.66;5033611;28;20049;-75
2023/07/08 10:32:11;;;;;;;6.03;2.45;;;;;;;-145.41;100.00;58600.66;5046244;28;20021;-75
2023/07/08 10:34:45;;;;;;;4.07;2.30;;;;;;;-145.41;100.00;58600.66;5036634;28;20037;-75
2023/07/08 10:37:21;;;;;;;3.67;2.15;;;;;;;-145.41;100.00;58600.66;5037759;28;20033;-76
2023/07/08 10:39:56;;;;;;;4.15;2.45;;;;;;;-145.41;100.00;58600.66;5043264;28;20033;-75
2023/07/08 10:42:58;;;;;;;3.90;1.98;;;;;;;-145.41;100.00;58600.66;5040588;28;20160;-77
2023/07/08 10:45:45;;;;;;;4.47;2.50;;;;;;;-145.41;100.00;58600.66;5045438;28;20036;-77
2023/07/08 10:48:32;;;;;;;3.55;2.13;;;;;;;-145.41;100.00;58600.66;5042350;28;20048;-77
2023/07/08 10:51:25;;;;;;;3.97;2.55;;;;;;;-145.41;100.00;58600.66;5039440;28;20034;-77
2023/07/08 10:53:53;;;;;;;3.42;2.22;;;;;;;-145.41;100.00;58600.66;5037506;28;20095;-78
2023/07/08 10:56:44;;;;;;;3.30;2.03;;;;;;;-145.41;100.00;58600.66;5048111;28;20124;-77
2023/07/08 10:59:48;;;;;;;4.55;2.90;;;;;;;-145.41;100.00;58600.66;5047358;28;20036;-78
2023/07/08 11:02:37;;;;;;;4.57;2.45;;;;;;;-145.41;100.00;58600.66;5038122;28;20091;-78
2023/07/08 11:05:24;;;;;;;3.83;2.47;;;;;;;-145.41;100.00;58600.66;5048140;28;20492;-78
2023/07/08 11:08:03;;;;;;;4.20;2.78;;;;;;;-145.41;100.00;58600.66;5020625;28;20084;-78
2023/07/08 11:10:51;;;;;;;4.65;2.50;;;;;;;-145.41;100.00;58600.66;5047115;28;20052;-78
2023/07/08 11:13:20;;;;;;;4.43;2.30;;;;;;;-145.41;100.00;58600.66;5050077;28;20025;-78
2023/07/08 11:15:52;;;;;;;4.40;2.50;;;;;;;-145.41;100.00;58600.66;5054156;28;20048;-78
2023/07/08 11:18:23;;;;;;;5.45;2.60;;;;;;;-145.41;100.00;58600.66;5045655;28;20068;-78